createdAt,value
2023-05-17T00:00:35.672Z,1.52
2023-05-17T00:05:32.173Z,1.50
2023-05-17T00:10:28.617Z,1.98
2023-05-17T00:15:25.316Z,1.42
2023-05-17T00:20:21.872Z,1.60
2023-05-17T00:25:18.304Z,1.63
2023-05-17T00:30:15.162Z,1.70
2023-05-17T00:35:11.638Z,1.48
2023-05-17T00:40:09.182Z,1.42
2023-05-17T00:45:06.546Z,2.03
2023-05-17T00:50:03.766Z,2.17
2023-05-17T00:55:00.478Z,1.77
2023-05-17T00:59:57.400Z,1.83
2023-05-17T01:04:54.326Z,1.60
2023-05-17T01:09:50.994Z,1.60
2023-05-17T01:14:52.581Z,1.80
2023-05-17T01:20:01.004Z,1.83
2023-05-17T01:30:18.138Z,2.78
2023-05-17T01:35:16.131Z,2.35
2023-05-17T01:40:13.172Z,2.40
2023-05-17T01:45:22.854Z,2.45
2023-05-17T01:50:25.357Z,2.25
2023-05-17T01:55:26.750Z,1.88
2023-05-17T02:00:25.722Z,2.35
2023-05-17T02:05:22.285Z,3.05
2023-05-17T02:10:18.779Z,2.47
2023-05-17T02:15:16.643Z,2.15
2023-05-17T02:20:13.080Z,3.00
2023-05-17T02:25:09.845Z,2.25
2023-05-17T02:30:07.557Z,2.53
2023-05-17T02:35:04.341Z,2.40
2023-05-17T02:40:00.807Z,3.00
2023-05-17T02:44:58.031Z,2.15
2023-05-17T02:49:54.508Z,2.70
2023-05-17T02:54:51.639Z,2.15
2023-05-17T02:59:48.251Z,2.05
2023-05-17T03:04:44.862Z,2.30
2023-05-17T03:09:42.861Z,2.70
2023-05-17T03:14:39.346Z,2.57
2023-05-17T03:19:35.900Z,2.30
2023-05-17T03:24:32.403Z,2.40
2023-05-17T03:29:28.841Z,2.53
2023-05-17T03:34:25.455Z,2.65
2023-05-17T03:39:22.181Z,2.42
2023-05-17T03:44:18.631Z,2.20
2023-05-17T03:49:15.092Z,2.55
2023-05-17T03:54:11.646Z,2.25
2023-05-17T03:59:08.097Z,2.50
2023-05-17T04:04:05.986Z,2.70
2023-05-17T04:09:02.688Z,2.70
2023-05-17T04:13:59.228Z,2.60
2023-05-17T04:18:56.085Z,2.92
2023-05-17T04:23:52.579Z,3.78
2023-05-17T04:28:48.957Z,2.70
2023-05-17T04:33:45.768Z,3.35
2023-05-17T04:38:42.616Z,3.13
2023-05-17T04:43:39.249Z,3.42
2023-05-17T04:48:36.006Z,3.20
2023-05-17T04:53:32.630Z,3.55
2023-05-17T04:58:29.009Z,3.85
2023-05-17T05:03:26.555Z,4.43
2023-05-17T05:08:23.039Z,3.97
2023-05-17T05:13:19.477Z,4.55
2023-05-17T05:18:15.944Z,4.88
2023-05-17T05:23:12.333Z,4.65
2023-05-17T05:28:08.786Z,4.32
2023-05-17T05:33:05.358Z,4.47
2023-05-17T05:38:01.780Z,5.30
2023-05-17T05:42:58.246Z,5.47
2023-05-17T05:47:54.803Z,5.57
2023-05-17T05:52:51.331Z,6.22
2023-05-17T05:57:47.754Z,5.30
2023-05-17T06:02:44.215Z,4.93
2023-05-17T06:07:40.623Z,6.85
2023-05-17T06:12:37.029Z,6.18
2023-05-17T06:17:33.526Z,5.88
2023-05-17T06:22:29.997Z,5.63
2023-05-17T06:27:26.709Z,5.63
2023-05-17T06:32:23.115Z,6.22
2023-05-17T06:37:19.530Z,4.05
2023-05-17T06:42:15.956Z,3.05
2023-05-17T06:47:12.427Z,2.15
2023-05-17T06:52:08.827Z,2.47
2023-05-17T06:57:05.673Z,2.53
2023-05-17T07:02:02.260Z,1.95
2023-05-17T07:06:58.702Z,2.90
2023-05-17T07:11:55.167Z,1.70
2023-05-17T07:16:51.557Z,2.67
2023-05-17T07:21:48.030Z,2.28
2023-05-17T07:26:45.904Z,2.42
2023-05-17T07:31:42.308Z,2.05
2023-05-17T07:36:38.945Z,1.52
2023-05-17T07:41:36.418Z,2.75
2023-05-17T07:46:33.137Z,1.95
2023-05-17T07:51:29.615Z,1.55
2023-05-17T07:56:26.022Z,1.88
2023-05-17T08:01:23.694Z,1.73
2023-05-17T08:06:20.141Z,1.07
2023-05-17T08:11:16.867Z,1.55
2023-05-17T08:16:14.815Z,1.83
2023-05-17T08:21:11.862Z,1.70
2023-05-17T08:26:08.248Z,1.20
2023-05-17T08:31:04.957Z,1.48
2023-05-17T08:36:02.942Z,1.10
2023-05-17T08:40:59.978Z,0.82
2023-05-17T08:45:58.163Z,1.95
2023-05-17T08:50:56.462Z,1.00
2023-05-17T08:55:58.035Z,1.23
2023-05-17T09:00:56.122Z,1.83
2023-05-17T09:05:53.700Z,2.13
2023-05-17T09:10:50.703Z,0.90
2023-05-17T09:15:48.941Z,1.20
2023-05-17T09:20:51.492Z,1.30
2023-05-17T09:25:49.345Z,1.17
2023-05-17T09:30:49.347Z,1.48
2023-05-17T09:35:45.853Z,1.02
2023-05-17T09:40:43.975Z,1.42
2023-05-17T09:45:41.216Z,2.15
2023-05-17T09:50:37.634Z,0.70
2023-05-17T09:55:34.099Z,1.35
2023-05-17T10:00:32.231Z,1.05
2023-05-17T10:05:29.318Z,1.15
2023-05-17T10:10:27.681Z,1.85
2023-05-17T10:15:25.751Z,1.48
2023-05-17T10:20:22.271Z,0.90
2023-05-17T10:25:19.310Z,1.33
2023-05-17T10:30:18.143Z,1.52
2023-05-17T10:35:16.609Z,1.55
2023-05-17T10:40:13.939Z,2.07
2023-05-17T10:45:12.595Z,1.30
2023-05-17T10:55:12.449Z,1.40
2023-05-17T11:00:12.290Z,1.60
2023-05-17T11:05:23.821Z,1.90
2023-05-17T11:10:20.365Z,1.75
2023-05-17T11:15:17.669Z,2.15
2023-05-17T11:20:26.826Z,1.35
2023-05-17T11:25:23.603Z,1.20
2023-05-17T11:30:27.113Z,1.10
2023-05-17T11:35:26.819Z,1.30
2023-05-17T11:40:28.319Z,1.40
2023-05-17T11:45:25.136Z,1.55
2023-05-17T11:50:21.624Z,2.78
2023-05-17T11:55:18.252Z,2.25
2023-05-17T12:00:16.643Z,1.63
2023-05-17T12:10:16.452Z,2.03
2023-05-17T12:15:19.011Z,1.48
2023-05-17T12:20:16.054Z,1.85
2023-05-17T12:25:19.940Z,1.83
2023-05-17T12:30:17.159Z,1.95
2023-05-17T12:35:13.656Z,2.03
2023-05-17T12:40:12.064Z,1.85
2023-05-17T12:45:12.824Z,1.17
2023-05-17T12:50:10.118Z,1.65
2023-05-17T12:55:12.657Z,1.80
2023-05-17T13:00:09.663Z,1.40
2023-05-17T13:05:16.744Z,1.30
2023-05-17T13:10:28.281Z,1.40
2023-05-17T13:15:32.574Z,1.52
2023-05-17T13:20:29.419Z,2.88
2023-05-17T13:25:26.137Z,1.92
2023-05-17T13:30:22.581Z,1.42
2023-05-17T13:35:19.004Z,1.50
2023-05-17T13:40:15.656Z,2.17
2023-05-17T13:45:13.601Z,1.40
2023-05-17T13:50:10.592Z,1.60
2023-05-17T13:55:07.757Z,1.70
2023-05-17T14:00:12.560Z,1.38
2023-05-17T14:05:09.882Z,1.38
2023-05-17T14:10:08.032Z,1.48
2023-05-17T14:15:04.924Z,1.55
2023-05-17T14:20:01.451Z,1.48
2023-05-17T14:24:57.938Z,1.38
2023-05-17T14:29:54.534Z,1.75
2023-05-17T14:34:50.979Z,1.17
2023-05-17T14:40:05.325Z,1.40
2023-05-17T14:45:03.340Z,1.50
2023-05-17T14:49:59.835Z,1.73
2023-05-17T14:54:56.663Z,1.52
2023-05-17T14:59:53.100Z,1.33
2023-05-17T15:04:49.822Z,1.80
2023-05-17T15:09:46.623Z,1.45
2023-05-17T15:14:44.021Z,1.33
2023-05-17T15:19:41.224Z,1.88
2023-05-17T15:24:39.785Z,1.35
2023-05-17T15:34:35.369Z,1.90
2023-05-17T15:39:32.010Z,1.83
2023-05-17T15:44:28.451Z,1.17
2023-05-17T15:49:25.924Z,1.35
2023-05-17T15:54:22.415Z,1.07
2023-05-17T15:59:18.853Z,1.45
2023-05-17T16:04:15.799Z,1.50
2023-05-17T16:09:14.748Z,1.40
2023-05-17T16:14:11.656Z,2.53
2023-05-17T16:19:08.133Z,1.15
2023-05-17T16:24:06.517Z,1.40
2023-05-17T16:29:02.950Z,2.30
2023-05-17T16:33:59.397Z,1.73
2023-05-17T16:38:55.888Z,1.48
2023-05-17T16:43:52.353Z,1.23
2023-05-17T16:48:48.745Z,1.33
2023-05-17T16:53:45.237Z,1.40
2023-05-17T16:58:41.619Z,1.45
2023-05-17T17:03:38.163Z,1.45
2023-05-17T17:08:34.605Z,3.17
2023-05-17T17:13:31.325Z,1.30
2023-05-17T17:18:29.020Z,1.30
2023-05-17T17:23:25.650Z,1.13
2023-05-17T17:28:22.060Z,1.13
2023-05-17T17:33:18.539Z,1.30
2023-05-17T17:38:15.142Z,1.40
2023-05-17T17:43:11.571Z,1.30
2023-05-17T17:48:08.107Z,1.98
2023-05-17T17:53:04.592Z,1.80
2023-05-17T17:58:01.241Z,1.20
2023-05-17T18:02:57.844Z,1.42
2023-05-17T18:07:54.318Z,1.88
2023-05-17T18:12:51.713Z,1.40
2023-05-17T18:17:51.282Z,1.27
2023-05-17T18:22:47.841Z,1.58
2023-05-17T18:27:44.473Z,1.75
2023-05-17T18:32:41.286Z,1.30
2023-05-17T18:37:37.790Z,1.60
2023-05-17T18:42:34.226Z,2.05
2023-05-17T18:47:30.741Z,1.98
2023-05-17T18:52:27.165Z,1.90
2023-05-17T18:57:23.570Z,1.50
2023-05-17T19:02:19.991Z,1.67
2023-05-17T19:07:16.517Z,2.08
2023-05-17T19:12:12.932Z,1.40
2023-05-17T19:17:10.255Z,1.67
2023-05-17T19:22:06.975Z,1.92
2023-05-17T19:27:03.636Z,2.00
2023-05-17T19:32:00.193Z,2.10
2023-05-17T19:36:57.381Z,1.30
2023-05-17T19:41:53.789Z,1.95
2023-05-17T19:46:50.497Z,2.00
2023-05-17T19:51:48.132Z,1.92
2023-05-17T19:56:44.800Z,1.65
2023-05-17T20:01:41.317Z,1.83
2023-05-17T20:06:37.921Z,2.22
2023-05-17T20:11:34.603Z,1.55
2023-05-17T20:16:31.215Z,1.63
2023-05-17T20:21:29.244Z,1.73
2023-05-17T20:26:27.052Z,1.50
2023-05-17T20:31:23.492Z,1.80
2023-05-17T20:36:20.027Z,1.80
2023-05-17T20:41:16.722Z,1.75
2023-05-17T20:46:13.939Z,1.95
2023-05-17T20:51:10.757Z,1.95
2023-05-17T20:56:07.456Z,2.38
2023-05-17T21:01:04.035Z,1.63
2023-05-17T21:06:01.615Z,1.70
2023-05-17T21:10:58.712Z,2.28
2023-05-17T21:15:55.879Z,2.10
2023-05-17T21:20:52.707Z,2.10
2023-05-17T21:25:49.265Z,2.13
2023-05-17T21:30:45.674Z,2.83
2023-05-17T21:35:42.068Z,2.40
2023-05-17T21:40:39.077Z,2.30
2023-05-17T21:45:35.619Z,2.50
2023-05-17T21:50:32.278Z,2.50
2023-05-17T21:55:36.482Z,2.40
2023-05-17T22:00:43.393Z,3.42
2023-05-17T22:05:40.013Z,1.95
2023-05-17T22:10:37.040Z,2.10
2023-05-17T22:15:34.809Z,2.22
2023-05-17T22:20:31.472Z,2.50
2023-05-17T22:25:28.215Z,2.47
2023-05-17T22:30:24.606Z,2.60
2023-05-17T22:35:21.114Z,2.53
2023-05-17T22:40:17.804Z,2.80
2023-05-17T22:45:14.498Z,2.13
2023-05-17T22:50:12.037Z,2.45
2023-05-17T22:55:10.698Z,3.70
2023-05-17T23:00:09.288Z,2.25
2023-05-17T23:05:06.077Z,2.42
2023-05-17T23:10:07.159Z,2.90
2023-05-17T23:15:05.095Z,3.45
2023-05-17T23:20:06.820Z,2.10
2023-05-17T23:25:03.386Z,2.70
2023-05-17T23:30:01.088Z,2.75
2023-05-17T23:34:58.552Z,3.13
2023-05-17T23:39:54.955Z,2.63
2023-05-17T23:44:51.325Z,2.80
2023-05-17T23:49:47.764Z,3.03
2023-05-17T23:54:45.018Z,3.33
2023-05-17T23:59:42.082Z,3.30
